Aviation Digital Data Service (ADDS)

Output produced by METARs form (2056 UTC 29 May 2017)
found at http://www.aviationweather.gov/adds/metars/
 
KOAJ 291727Z 2918/3018 28006KT P6SM SKC 
     FM300100 22005KT P6SM VCTS SCT060CB 
     FM300700 VRB04KT P6SM SCT025 BKN050 
     FM301200 24007KT P6SM BKN080 AMD LTD TO CLD VIS AND WIND
       
KOAK 291933Z 2920/3024 25009KT P6SM OVC012 
     FM292100 26012KT P6SM SCT015 
     FM292300 28017G21KT P6SM SCT015 
     FM300300 27014KT P6SM BKN015 
     FM300600 28009KT P6SM OVC011 
     FM301000 26010KT P6SM OVC008 
     FM301900 28013KT P6SM SCT012
       
TAF KOFF 291800Z 2918/3024 31015G20KT 9999 SCT070 QNH2997INS 
     TEMPO 2918/2923 31015G25KT 
     BECMG 2923/2924 30009KT 9999 FEW070 QNH2999INS TX24/2921Z TN10/3011Z
       
KOFK 291728Z 2918/3018 31017G26KT P6SM SCT060 
     FM300100 31009KT P6SM FEW250 
     FM300300 30004KT P6SM SKC 
     FM301500 31009KT P6SM SKC
       
KOGB 292037Z 2921/3018 29010G16KT P6SM SCT035 SCT250 
     FM292300 25007KT P6SM VCTS SCT040CB BKN150 
     FM300500 23005KT P6SM BKN100
       
KOGD 291720Z 2918/3018 31008KT P6SM SKC 
     FM300300 17006KT P6SM SKC
       
KOKC 291720Z 2918/3018 35005KT P6SM SCT250 
     FM292200 17005KT P6SM SCT120
       
KOLF 291735Z 2918/3018 34015G22KT P6SM FEW060 
     FM300200 36008KT P6SM SKC 
     FM300500 01004KT P6SM SKC
       
KOLM 291946Z 2920/3018 VRB03KT P6SM FEW015 
     FM292100 26005KT P6SM SKC 
     FM300300 24005KT P6SM SCT090 BKN250 
     FM301000 19005KT P6SM OVC015
       
KOLS 291735Z 2918/3018 21012G18KT P6SM SCT250 
     FM300200 24006KT P6SM BKN200 
     FM300600 08004KT P6SM BKN200 
     FM301500 17005KT P6SM BKN200
       
KOMA 291728Z 2918/3018 31015G22KT P6SM SCT070 
     FM300100 31008KT P6SM FEW250 
     FM300300 32004KT P6SM SKC 
     FM301700 30009KT P6SM FEW250
       
KONP 291724Z 2918/3018 32007KT 2SM BR OVC004 
     FM291900 33008KT 6SM BR OVC008 
     FM292100 32008KT P6SM OVC011 
     FM300200 34008KT P6SM OVC009 
     FM300500 34003KT 5SM BR OVC004
       
KONT 292002Z 2920/3024 26012KT P6SM SCT200 
     FM300400 VRB05KT P6SM SCT200 
     FM300700 VRB04KT 5SM BR BKN010 
     FM301700 VRB04KT P6SM FEW015 SCT200 
     FM302000 25011KT P6SM SCT200
       
KOPF 291735Z 2918/3018 VRB03KT P6SM SCT045 
     FM291900 13010KT P6SM FEW035 
     FM300000 VRB03KT P6SM FEW250 
     FM301600 15007KT P6SM SCT250
       
KORD 291732Z 2918/3024 27017G27KT P6SM FEW060 SCT090 
     FM300000 26008KT P6SM FEW060 
     FM301600 26013G20KT P6SM BKN050 
     PROB30 3019/3023 6SM -SHRA
       
KORF 291739Z 2918/3018 05005KT P6SM SCT030 
     FM292100 08007KT P6SM SCT040 
     FM300000 11006KT P6SM BKN050 
     FM300600 12007KT P6SM OVC020 
     FM300800 12006KT P6SM OVC015
       
KORH 291733Z 2918/3018 06007KT 1SM -RA BR OVC003 
     FM292200 08006KT 2SM BR OVC006 
     FM300300 08005KT P6SM BKN008 
     FM301100 16004KT 3SM BR BKN008 
     FM301400 17005KT P6SM BKN020
       
KOTH 291749Z 2918/3018 35008KT P6SM SCT007 OVC020 
     FM291900 34012KT P6SM BKN012 
     FM300300 34009KT 6SM BR OVC012 
     FM300500 34006KT 6SM BR OVC009 
     FM300800 35004KT 5SM BR OVC008 
     FM301200 VRB03KT P6SM OVC007
       
KOTM 291931Z 2920/3018 28015G23KT P6SM SCT080 
     FM300200 28008KT P6SM SCT120 
     FM301600 27009G17KT P6SM SCT120
       
KOUN 291720Z 2918/3018 34005KT P6SM SCT250 
     FM292200 17005KT P6SM SCT120
       
KOWB 291720Z 2918/3018 25007KT P6SM SCT050 SCT250 
     FM300500 VRB03KT P6SM SCT200 
     FM301700 27007KT P6SM FEW250
       
KOXR 292004Z 2920/3018 VRB03KT P6SM OVC012 
     FM292200 27012KT P6SM FEW010 SCT200 
     FM300400 28008KT P6SM BKN008 
     FM300600 VRB03KT P6SM OVC007 
     FM301600 VRB03KT P6SM OVC010